Pecan, Mississippi
Current Conditions -  °F | °C
As of 7:53 AM on Wednesday 26 Nov 2014 (Local Time) from KPQL Reporting Station
Clear Clear  
Wind Chill: 41°   Ceiling: Unl
Heat Index: 41°   Visibility: 10mi
Dew Point: 33°   Wind: 3mph
Humidity: 73%   Direction: 310°NW
Pressure: 30.26"   Gusts: NA
Location:  30.3649°N, 88.5432°W
Report Text: KPQL 261353Z AUTO 31003KT 10SM CLR 05/01 A3026 RMK AO2 SLP250 T00500006 TSNO
Loading
Personal Weather Stations






























Interactive Weather Map New forecast layout! Learn more

10-Day Weather Forecast

Advertisements
Track Severe Weather on mobile